createdAt,value
2023-04-01T00:00:33.645Z,4.75
2023-04-01T00:03:03.161Z,2.60
2023-04-01T00:05:29.980Z,2.85
2023-04-01T00:07:58.843Z,2.28
2023-04-01T00:10:25.481Z,2.35
2023-04-01T00:12:52.109Z,2.92
2023-04-01T00:15:21.682Z,2.13
2023-04-01T00:17:48.379Z,3.17
2023-04-01T00:20:19.844Z,4.30
2023-04-01T00:22:46.573Z,3.10
2023-04-01T00:25:13.580Z,3.03
2023-04-01T00:27:40.377Z,1.63
2023-04-01T00:30:10.070Z,23.30
2023-04-01T00:32:39.198Z,3.28
2023-04-01T00:35:08.684Z,2.40
2023-04-01T00:37:40.364Z,3.08
2023-04-01T00:40:11.098Z,2.53
2023-04-01T00:42:37.756Z,2.58
2023-04-01T00:45:28.993Z,2.00
2023-04-01T00:47:57.212Z,2.85
2023-04-01T00:50:33.800Z,4.93
2023-04-01T00:53:01.801Z,5.18
2023-04-01T00:55:31.759Z,2.72
2023-04-01T00:58:00.945Z,3.10
2023-04-01T01:00:29.961Z,2.00
2023-04-01T01:02:56.614Z,1.80
2023-04-01T01:05:48.472Z,3.80
2023-04-01T01:08:19.077Z,2.63
2023-04-01T01:10:50.434Z,2.60
2023-04-01T01:13:23.120Z,3.10
2023-04-01T01:16:01.317Z,2.38
2023-04-01T01:18:56.010Z,1.80
2023-04-01T01:22:00.510Z,2.63
2023-04-01T01:25:07.304Z,1.48
2023-04-01T01:27:36.939Z,4.63
2023-04-01T01:30:18.481Z,2.13
2023-04-01T01:33:00.459Z,2.90
2023-04-01T01:35:50.010Z,3.10
2023-04-01T01:38:24.665Z,2.78
2023-04-01T01:40:54.809Z,0.98
2023-04-01T01:43:29.416Z,1.10
2023-04-01T01:46:01.013Z,2.40
2023-04-01T01:48:30.494Z,1.63
2023-04-01T01:50:57.633Z,2.08
2023-04-01T01:53:26.518Z,2.35
2023-04-01T01:55:53.266Z,1.58
2023-04-01T01:58:43.987Z,1.15
2023-04-01T02:01:16.191Z,1.45
2023-04-01T02:03:47.498Z,2.90
2023-04-01T02:06:19.337Z,1.58
2023-04-01T02:08:48.561Z,2.22
2023-04-01T02:11:20.827Z,2.17
2023-04-01T02:13:58.032Z,2.65
2023-04-01T02:16:38.893Z,1.77
2023-04-01T02:19:09.381Z,1.90
2023-04-01T02:21:40.462Z,0.80
2023-04-01T02:24:15.364Z,2.10
2023-04-01T02:26:46.170Z,1.00
2023-04-01T02:29:13.380Z,2.30
2023-04-01T02:31:43.095Z,4.10
2023-04-01T02:34:10.388Z,0.60
2023-04-01T02:36:37.795Z,1.83
2023-04-01T02:39:08.045Z,0.65
2023-04-01T02:41:40.768Z,2.13
2023-04-01T02:44:08.165Z,2.30
2023-04-01T02:46:34.901Z,2.05
2023-04-01T02:49:04.274Z,1.70
2023-04-01T02:51:32.116Z,2.20
2023-04-01T02:54:01.931Z,1.23
2023-04-01T02:56:28.771Z,1.83
2023-04-01T02:58:57.800Z,5.18
2023-04-01T03:01:24.476Z,2.53
2023-04-01T03:03:51.247Z,1.30
2023-04-01T03:06:21.032Z,2.25
2023-04-01T03:08:53.251Z,1.05
2023-04-01T03:11:22.514Z,1.95
2023-04-01T03:13:49.742Z,1.80
2023-04-01T03:16:16.587Z,0.60
2023-04-01T03:18:45.870Z,0.82
2023-04-01T03:21:24.291Z,1.45
2023-04-01T03:23:53.701Z,2.58
2023-04-01T03:26:23.622Z,2.30
2023-04-01T03:28:50.449Z,1.73
2023-04-01T03:31:22.290Z,2.38
2023-04-01T03:33:52.079Z,2.05
2023-04-01T03:36:19.024Z,2.03
2023-04-01T03:38:45.949Z,0.70
2023-04-01T03:41:14.939Z,0.52
2023-04-01T03:43:41.735Z,2.75
2023-04-01T03:46:10.815Z,3.05
2023-04-01T03:48:37.667Z,1.42
2023-04-01T03:51:08.529Z,1.10
2023-04-01T03:53:37.343Z,0.70
2023-04-01T03:56:11.114Z,1.20
2023-04-01T03:58:39.612Z,2.92
2023-04-01T04:01:23.865Z,1.42
2023-04-01T04:03:53.207Z,1.83
2023-04-01T04:06:20.891Z,0.50
2023-04-01T04:08:47.780Z,2.80
2023-04-01T04:11:17.464Z,3.00
2023-04-01T04:13:44.670Z,1.38
2023-04-01T04:16:14.638Z,1.45
2023-04-01T04:18:41.721Z,2.55
2023-04-01T04:21:18.067Z,1.63
2023-04-01T04:23:45.124Z,1.73
2023-04-01T04:26:16.620Z,2.33
2023-04-01T04:28:43.487Z,2.08
2023-04-01T04:31:10.336Z,1.10
2023-04-01T04:33:37.510Z,1.45
2023-04-01T04:36:05.260Z,1.42
2023-04-01T04:38:32.384Z,2.00
2023-04-01T04:41:01.543Z,1.92
2023-04-01T04:43:28.277Z,2.00
2023-04-01T04:45:59.413Z,3.30
2023-04-01T04:48:26.054Z,1.48
2023-04-01T04:50:54.897Z,1.80
2023-04-01T04:53:21.543Z,0.82
2023-04-01T04:55:51.402Z,0.70
2023-04-01T04:58:18.703Z,2.17
2023-04-01T05:00:50.543Z,1.20
2023-04-01T05:03:19.821Z,3.72
2023-04-01T05:05:54.369Z,1.95
2023-04-01T05:08:23.369Z,1.83
2023-04-01T05:10:50.013Z,1.17
2023-04-01T05:13:16.792Z,2.67
2023-04-01T05:15:45.609Z,2.10
2023-04-01T05:18:14.485Z,4.97
2023-04-01T05:20:47.961Z,4.60
2023-04-01T05:23:14.673Z,3.53
2023-04-01T05:25:41.373Z,4.53
2023-04-01T05:28:10.513Z,5.35
2023-04-01T05:30:42.043Z,5.35
2023-04-01T05:33:14.170Z,4.65
2023-04-01T05:35:45.621Z,3.38
2023-04-01T05:38:12.341Z,10.18
2023-04-01T05:40:38.996Z,2.20
2023-04-01T05:43:05.833Z,3.17
2023-04-01T05:45:37.730Z,3.42
2023-04-01T05:48:04.942Z,7.65
2023-04-01T05:50:31.655Z,3.28
2023-04-01T05:52:58.443Z,2.78
2023-04-01T05:55:27.497Z,2.00
2023-04-01T05:57:56.540Z,2.83
2023-04-01T06:00:25.660Z,2.38
2023-04-01T06:02:54.867Z,2.67
2023-04-01T06:05:30.983Z,1.83
2023-04-01T06:08:06.971Z,2.15
2023-04-01T06:10:53.935Z,1.70
2023-04-01T06:13:25.651Z,2.67
2023-04-01T06:16:11.392Z,2.67
2023-04-01T06:18:46.140Z,1.80
2023-04-01T06:21:21.177Z,1.70
2023-04-01T06:24:19.347Z,2.28
2023-04-01T06:27:24.242Z,3.47
2023-04-01T06:30:12.576Z,3.03
2023-04-01T06:33:04.035Z,2.72
2023-04-01T06:35:52.144Z,2.28
2023-04-01T06:38:53.324Z,4.20
2023-04-01T06:41:32.040Z,2.95
2023-04-01T06:44:34.248Z,5.85
2023-04-01T06:47:35.133Z,3.08
2023-04-01T06:50:08.074Z,3.03
2023-04-01T06:53:12.061Z,3.65
2023-04-01T06:55:48.948Z,6.20
2023-04-01T06:58:30.042Z,15.35
2023-04-01T07:01:03.122Z,4.53
2023-04-01T07:03:48.019Z,4.22
2023-04-01T07:06:35.693Z,4.03
2023-04-01T07:09:07.454Z,5.32
2023-04-01T07:11:40.978Z,4.97
2023-04-01T07:14:24.888Z,4.88
2023-04-01T07:17:07.249Z,3.55
2023-04-01T07:20:18.397Z,4.90
2023-04-01T07:22:48.637Z,3.65
2023-04-01T07:25:18.725Z,4.68
2023-04-01T07:27:48.915Z,3.90
2023-04-01T07:30:21.861Z,13.20
2023-04-01T07:33:02.765Z,4.00
2023-04-01T07:35:39.643Z,3.33
2023-04-01T07:38:23.697Z,3.03
2023-04-01T07:41:10.283Z,5.13
2023-04-01T07:43:39.095Z,3.75
2023-04-01T07:46:27.393Z,3.40
2023-04-01T07:49:04.794Z,5.35
2023-04-01T07:51:52.473Z,2.30
2023-04-01T07:54:26.522Z,3.70
2023-04-01T07:57:07.165Z,3.70
2023-04-01T08:00:02.281Z,2.55
2023-04-01T08:02:41.980Z,3.03
2023-04-01T08:05:41.034Z,2.65
2023-04-01T08:08:21.128Z,6.28
2023-04-01T08:10:56.609Z,3.83
2023-04-01T08:13:47.224Z,2.70
2023-04-01T08:16:36.371Z,3.08
2023-04-01T08:19:21.501Z,6.15
2023-04-01T08:21:53.326Z,2.00
2023-04-01T08:24:52.033Z,2.65
2023-04-01T08:28:08.317Z,2.08
2023-04-01T08:30:49.797Z,3.70
2023-04-01T08:33:19.246Z,2.42
2023-04-01T08:36:02.777Z,2.15
2023-04-01T08:38:35.456Z,3.95
2023-04-01T08:41:17.359Z,1.92
2023-04-01T08:43:47.170Z,2.30
2023-04-01T08:46:17.111Z,5.30
2023-04-01T08:49:15.849Z,1.88
2023-04-01T08:51:56.870Z,2.42
2023-04-01T08:54:45.374Z,2.05
2023-04-01T08:57:41.096Z,6.18
2023-04-01T09:00:23.090Z,2.50
2023-04-01T09:03:11.703Z,3.30
2023-04-01T09:06:09.067Z,3.15
2023-04-01T09:09:09.641Z,2.38
2023-04-01T09:12:04.241Z,4.72
2023-04-01T09:14:30.833Z,1.70
2023-04-01T09:17:13.978Z,2.72
2023-04-01T09:19:52.948Z,1.40
2023-04-01T09:22:53.084Z,2.20
2023-04-01T09:25:49.089Z,1.50
2023-04-01T09:28:36.993Z,2.25
2023-04-01T09:31:26.860Z,1.55
2023-04-01T09:34:15.416Z,4.22
2023-04-01T09:36:59.127Z,4.00
2023-04-01T09:39:49.130Z,4.60
2023-04-01T09:42:58.797Z,6.38
2023-04-01T09:45:47.712Z,9.63
2023-04-01T09:48:53.614Z,3.58
2023-04-01T09:51:28.930Z,10.15
2023-04-01T09:54:27.206Z,5.22
2023-04-01T09:57:12.578Z,2.67
2023-04-01T10:00:21.246Z,2.45
2023-04-01T10:03:12.166Z,2.35
2023-04-01T10:05:59.112Z,4.60
2023-04-01T10:08:44.639Z,2.75
2023-04-01T10:11:58.779Z,3.13
2023-04-01T10:15:02.371Z,2.65
2023-04-01T10:17:35.602Z,22.60
2023-04-01T10:20:28.795Z,4.78
2023-04-01T10:23:21.830Z,5.90
2023-04-01T10:26:00.027Z,4.35
2023-04-01T10:28:36.761Z,4.70
2023-04-01T10:31:40.915Z,5.25
2023-04-01T10:34:16.536Z,3.40
2023-04-01T10:39:34.180Z,5.18
2023-04-01T10:42:18.473Z,3.05
2023-04-01T10:44:50.904Z,5.25
2023-04-01T10:47:35.718Z,3.63
2023-04-01T10:50:23.468Z,5.78
2023-04-01T10:53:10.298Z,3.88
2023-04-01T10:56:07.989Z,4.00
2023-04-01T10:58:56.658Z,3.65
2023-04-01T11:01:42.137Z,3.45
2023-04-01T11:04:24.289Z,4.25
2023-04-01T11:07:14.223Z,3.55
2023-04-01T11:10:19.032Z,3.67
2023-04-01T11:13:19.152Z,2.95
2023-04-01T11:16:04.662Z,4.15
2023-04-01T11:19:00.164Z,3.85
2023-04-01T11:22:04.607Z,4.32
2023-04-01T11:24:31.214Z,3.58
2023-04-01T11:27:10.852Z,2.72
2023-04-01T11:30:00.598Z,2.55
2023-04-01T11:32:51.404Z,3.53
2023-04-01T11:35:47.454Z,3.50
2023-04-01T11:38:51.922Z,3.30
2023-04-01T11:41:45.284Z,3.58
2023-04-01T11:44:46.577Z,2.80
2023-04-01T11:47:30.878Z,3.63
2023-04-01T11:50:18.762Z,6.45
2023-04-01T11:53:22.055Z,4.55
2023-04-01T11:56:13.932Z,4.43
2023-04-01T11:59:06.874Z,4.18
2023-04-01T12:02:10.977Z,2.75
2023-04-01T12:04:42.659Z,2.50
2023-04-01T12:07:37.372Z,2.30
2023-04-01T12:10:19.412Z,2.85
2023-04-01T12:13:06.950Z,3.75
2023-04-01T12:15:53.904Z,3.45
2023-04-01T12:18:51.083Z,3.00
2023-04-01T12:21:26.827Z,2.92
2023-04-01T12:24:15.420Z,3.08
2023-04-01T12:27:09.179Z,2.97
2023-04-01T12:29:49.038Z,5.15
2023-04-01T12:32:43.249Z,3.13
2023-04-01T12:35:22.461Z,3.05
2023-04-01T12:38:21.601Z,3.50
2023-04-01T12:41:11.168Z,3.50
2023-04-01T12:44:07.534Z,3.10
2023-04-01T12:49:34.399Z,3.33
2023-04-01T12:52:26.631Z,4.03
2023-04-01T12:55:04.081Z,4.38
2023-04-01T12:57:38.412Z,3.83
2023-04-01T13:00:24.229Z,2.13
2023-04-01T13:03:08.197Z,3.25
2023-04-01T13:06:01.387Z,2.50
2023-04-01T13:08:37.929Z,2.80
2023-04-01T13:11:09.987Z,2.63
2023-04-01T13:14:24.974Z,2.35
2023-04-01T13:17:21.426Z,2.33
2023-04-01T13:20:04.928Z,4.07
2023-04-01T13:22:52.351Z,3.90
2023-04-01T13:25:38.605Z,4.72
2023-04-01T13:28:27.349Z,4.25
2023-04-01T13:31:28.772Z,3.85
2023-04-01T13:34:10.943Z,3.25
2023-04-01T13:37:07.266Z,4.00
2023-04-01T13:39:43.028Z,4.78
2023-04-01T13:42:31.346Z,5.68
2023-04-01T13:45:17.982Z,4.78
2023-04-01T13:47:50.277Z,6.40
2023-04-01T13:50:39.898Z,4.68
2023-04-01T13:53:44.207Z,4.18
2023-04-01T13:56:29.221Z,5.57
2023-04-01T13:59:33.032Z,4.53
2023-04-01T14:02:34.954Z,6.72
2023-04-01T14:05:41.899Z,5.55
2023-04-01T14:08:24.569Z,5.78
2023-04-01T14:11:12.478Z,4.60
2023-04-01T14:13:47.198Z,6.15
2023-04-01T14:16:44.384Z,5.03
2023-04-01T14:19:50.662Z,6.63
2023-04-01T14:22:26.203Z,6.75
2023-04-01T14:25:37.798Z,7.03
2023-04-01T14:28:31.451Z,8.77
2023-04-01T14:31:23.569Z,7.38
2023-04-01T14:34:07.733Z,9.13
2023-04-01T14:36:46.366Z,5.32
2023-04-01T14:39:54.257Z,6.45
2023-04-01T14:42:48.121Z,5.65
2023-04-01T14:45:45.629Z,5.05
2023-04-01T14:48:34.172Z,5.60
2023-04-01T14:51:26.044Z,4.25
2023-04-01T14:54:07.545Z,5.05
2023-04-01T14:56:43.639Z,4.40
2023-04-01T14:59:28.849Z,4.85
2023-04-01T15:02:28.443Z,5.87
2023-04-01T15:05:14.264Z,5.65
2023-04-01T15:07:55.855Z,6.50
2023-04-01T15:10:34.086Z,4.90
2023-04-01T15:13:14.601Z,6.43
2023-04-01T15:15:57.965Z,5.65
2023-04-01T15:18:57.624Z,6.40
2023-04-01T15:21:39.560Z,6.70
2023-04-01T15:24:24.986Z,6.00
2023-04-01T15:27:16.125Z,6.85
2023-04-01T15:30:17.606Z,5.63
2023-04-01T15:33:02.865Z,5.43
2023-04-01T15:35:51.347Z,7.75
2023-04-01T15:38:48.224Z,5.68
2023-04-01T15:41:28.478Z,6.00
2023-04-01T15:43:55.147Z,5.95
2023-04-01T15:46:28.683Z,6.20
2023-04-01T15:49:17.504Z,5.68
2023-04-01T15:51:49.417Z,5.50
2023-04-01T15:54:35.594Z,5.65
2023-04-01T15:57:32.517Z,6.10
2023-04-01T16:00:04.558Z,6.93
2023-04-01T16:02:49.901Z,5.40
2023-04-01T16:05:41.464Z,6.35
2023-04-01T16:08:16.326Z,4.50
2023-04-01T16:10:52.685Z,6.10
2023-04-01T16:13:28.728Z,4.90
2023-04-01T16:16:13.963Z,4.90
2023-04-01T16:18:49.576Z,5.82
2023-04-01T16:24:11.859Z,7.53
2023-04-01T16:26:59.138Z,7.22
2023-04-01T16:29:34.884Z,8.50
2023-04-01T16:32:38.941Z,8.68
2023-04-01T16:35:29.532Z,5.20
2023-04-01T16:37:59.321Z,13.25
2023-04-01T16:40:41.182Z,4.97
2023-04-01T16:43:18.233Z,5.50
2023-04-01T16:46:13.214Z,5.32
2023-04-01T16:48:58.897Z,4.65
2023-04-01T16:51:49.554Z,5.72
2023-04-01T16:54:24.500Z,7.00
2023-04-01T16:57:11.844Z,8.90
2023-04-01T16:59:49.136Z,8.00
2023-04-01T17:02:18.522Z,7.85
2023-04-01T17:04:46.422Z,6.85
2023-04-01T17:07:28.238Z,8.88
2023-04-01T17:10:19.207Z,6.25
2023-04-01T17:12:45.861Z,4.57
2023-04-01T17:15:12.454Z,4.25
2023-04-01T17:17:47.885Z,4.30
2023-04-01T17:20:45.596Z,4.65
2023-04-01T17:23:14.297Z,5.95
2023-04-01T17:26:05.805Z,6.68
2023-04-01T17:28:50.601Z,6.25
2023-04-01T17:31:56.010Z,6.13
2023-04-01T17:35:05.033Z,4.35
2023-04-01T17:38:06.297Z,5.05
2023-04-01T17:40:53.705Z,5.00
2023-04-01T17:43:45.335Z,7.00
2023-04-01T17:46:41.425Z,6.35
2023-04-01T17:49:39.390Z,5.93
2023-04-01T17:52:23.989Z,8.07
2023-04-01T17:55:10.667Z,7.82
2023-04-01T17:57:55.623Z,7.72
2023-04-01T18:00:30.132Z,7.88
2023-04-01T18:03:42.295Z,7.95
2023-04-01T18:06:53.419Z,11.52
2023-04-01T18:09:34.873Z,7.63
2023-04-01T18:12:18.246Z,9.48
2023-04-01T18:14:58.457Z,13.32
2023-04-01T18:17:53.368Z,9.52
2023-04-01T18:20:32.149Z,10.70
2023-04-01T18:23:18.178Z,10.27
2023-04-01T18:25:51.181Z,10.35
2023-04-01T18:28:44.831Z,9.43
2023-04-01T18:31:27.429Z,13.10
2023-04-01T18:33:56.300Z,8.30
2023-04-01T18:36:28.151Z,9.15
2023-04-01T18:39:13.330Z,9.07
2023-04-01T18:42:15.990Z,10.47
2023-04-01T18:44:58.233Z,10.93
2023-04-01T18:47:39.742Z,10.50
2023-04-01T18:50:29.434Z,11.13
2023-04-01T18:53:51.957Z,10.85
2023-04-01T18:56:31.821Z,13.82
2023-04-01T18:59:44.501Z,12.68
2023-04-01T19:02:37.006Z,11.65
2023-04-01T19:05:19.223Z,11.63
2023-04-01T19:07:50.091Z,10.65
2023-04-01T19:10:40.035Z,11.43
2023-04-01T19:13:51.032Z,10.07
2023-04-01T19:16:44.941Z,12.48
2023-04-01T19:19:52.175Z,12.00
2023-04-01T19:22:18.748Z,9.52
2023-04-01T19:25:02.999Z,9.32
2023-04-01T19:27:38.617Z,7.53
2023-04-01T19:33:11.853Z,8.55
2023-04-01T19:35:55.981Z,10.85
2023-04-01T19:39:01.074Z,13.50
2023-04-01T19:41:52.605Z,10.52
2023-04-01T19:44:27.981Z,8.50
2023-04-01T19:47:18.494Z,7.15
2023-04-01T19:50:11.544Z,7.93
2023-04-01T19:52:41.839Z,8.38
2023-04-01T19:55:39.980Z,7.78
2023-04-01T19:58:25.305Z,8.00
2023-04-01T20:01:01.596Z,10.10
2023-04-01T20:03:31.722Z,8.63
2023-04-01T20:06:23.820Z,9.43
2023-04-01T20:09:12.560Z,8.73
2023-04-01T20:11:55.976Z,9.20
2023-04-01T20:14:29.086Z,11.23
2023-04-01T20:17:01.301Z,9.30
2023-04-01T20:19:45.472Z,12.98
2023-04-01T20:22:34.955Z,12.05
2023-04-01T20:25:13.572Z,18.55
2023-04-01T20:27:48.312Z,13.32
2023-04-01T20:30:27.570Z,14.67
2023-04-01T20:33:20.203Z,11.40
2023-04-01T20:36:24.346Z,11.93
2023-04-01T20:39:08.566Z,11.40
2023-04-01T20:41:53.236Z,14.02
2023-04-01T20:44:32.908Z,10.32
2023-04-01T20:47:26.954Z,11.00
2023-04-01T20:50:08.749Z,9.95
2023-04-01T20:52:45.842Z,9.93
2023-04-01T20:55:40.723Z,11.25
2023-04-01T20:58:42.754Z,12.05
2023-04-01T21:01:12.492Z,9.38
2023-04-01T21:04:18.512Z,10.55
2023-04-01T21:06:47.625Z,12.23
2023-04-01T21:09:35.570Z,11.18
2023-04-01T21:12:29.988Z,10.55
2023-04-01T21:15:01.832Z,10.80
2023-04-01T21:17:55.984Z,11.13
2023-04-01T21:20:33.291Z,11.90
2023-04-01T21:23:37.300Z,11.80
2023-04-01T21:26:45.775Z,10.05
2023-04-01T21:29:27.388Z,10.27
2023-04-01T21:32:01.726Z,9.82
2023-04-01T21:34:44.206Z,12.07
2023-04-01T21:37:22.533Z,11.18
2023-04-01T21:40:07.885Z,11.95
2023-04-01T21:42:51.645Z,11.13
2023-04-01T21:45:33.658Z,13.77
2023-04-01T21:48:32.255Z,12.20
2023-04-01T21:51:11.336Z,11.55
2023-04-01T21:53:59.376Z,9.20
2023-04-01T21:56:38.049Z,10.60
2023-04-01T21:59:23.316Z,12.60
2023-04-01T22:02:29.253Z,11.88
2023-04-01T22:05:15.332Z,14.15
2023-04-01T22:10:30.843Z,11.80
2023-04-01T22:13:17.813Z,15.43
2023-04-01T22:16:16.286Z,12.75
2023-04-01T22:18:45.990Z,13.70
2023-04-01T22:21:28.026Z,15.68
2023-04-01T22:24:08.788Z,11.60
2023-04-01T22:27:03.179Z,9.73
2023-04-01T22:29:48.047Z,9.35
2023-04-01T22:32:28.060Z,11.02
2023-04-01T22:35:01.863Z,9.10
2023-04-01T22:37:46.609Z,13.88
2023-04-01T22:40:24.635Z,7.65
2023-04-01T22:42:58.394Z,9.27
2023-04-01T22:45:35.211Z,8.60
2023-04-01T22:48:13.678Z,8.18
2023-04-01T22:51:00.490Z,9.00
2023-04-01T22:53:51.411Z,8.98
2023-04-01T22:56:38.253Z,8.70
2023-04-01T22:59:42.948Z,9.63
2023-04-01T23:02:18.693Z,8.90
2023-04-01T23:04:54.996Z,10.60
2023-04-01T23:07:47.374Z,11.63
2023-04-01T23:10:41.256Z,10.93
2023-04-01T23:13:15.865Z,10.20
2023-04-01T23:15:45.888Z,12.25
2023-04-01T23:18:18.780Z,12.68
2023-04-01T23:21:24.050Z,11.60
2023-04-01T23:24:12.405Z,13.27
2023-04-01T23:27:02.054Z,11.55
2023-04-01T23:29:29.576Z,11.10
2023-04-01T23:32:05.253Z,11.98
2023-04-01T23:34:36.737Z,11.30
2023-04-01T23:37:11.120Z,10.52
2023-04-01T23:39:39.642Z,10.50
2023-04-01T23:42:16.108Z,8.15
2023-04-01T23:44:46.066Z,12.43
2023-04-01T23:47:25.503Z,8.80
2023-04-01T23:49:57.751Z,11.48
2023-04-01T23:52:31.140Z,10.50
2023-04-01T23:55:02.652Z,8.90
2023-04-01T23:57:37.002Z,9.07
